createdAt,value
2023-02-12T00:00:20.532Z,8.70
2023-02-12T00:02:47.455Z,8.70
2023-02-12T00:05:16.636Z,8.70
2023-02-12T00:07:44.089Z,8.70
2023-02-12T00:10:11.468Z,8.70
2023-02-12T00:12:38.308Z,8.70
2023-02-12T00:15:05.364Z,8.70
2023-02-12T00:17:32.272Z,8.70
2023-02-12T00:19:59.206Z,8.70
2023-02-12T00:22:26.185Z,8.70
2023-02-12T00:24:53.062Z,8.70
2023-02-12T00:27:19.972Z,8.70
2023-02-12T00:29:46.816Z,8.70
2023-02-12T00:32:14.553Z,8.60
2023-02-12T00:34:41.485Z,8.60
2023-02-12T00:37:08.387Z,8.60
2023-02-12T00:39:38.294Z,8.60
2023-02-12T00:42:05.321Z,8.60
2023-02-12T00:44:32.283Z,8.60
2023-02-12T00:47:02.499Z,8.60
2023-02-12T00:49:29.915Z,8.60
2023-02-12T00:51:56.793Z,8.60
2023-02-12T00:54:26.689Z,8.60
2023-02-12T00:56:53.576Z,8.70
2023-02-12T00:59:20.451Z,8.70
2023-02-12T01:01:47.418Z,8.70
2023-02-12T01:04:14.684Z,8.70
2023-02-12T01:06:41.663Z,8.70
2023-02-12T01:09:08.696Z,8.70
2023-02-12T01:11:35.703Z,8.70
2023-02-12T01:14:03.283Z,8.70
2023-02-12T01:16:31.957Z,8.70
2023-02-12T01:18:58.893Z,8.60
2023-02-12T01:21:27.513Z,8.70
2023-02-12T01:23:54.375Z,8.60
2023-02-12T01:26:21.698Z,8.60
2023-02-12T01:28:53.325Z,8.60
2023-02-12T01:31:22.074Z,8.60
2023-02-12T01:33:50.411Z,8.60
2023-02-12T01:36:17.329Z,8.50
2023-02-12T01:38:44.378Z,8.50
2023-02-12T01:41:12.755Z,8.50
2023-02-12T01:43:39.963Z,8.50
2023-02-12T01:46:07.812Z,8.50
2023-02-12T01:48:37.682Z,8.50
2023-02-12T01:51:05.039Z,8.50
2023-02-12T01:53:35.704Z,8.50
2023-02-12T01:56:03.492Z,8.40
2023-02-12T01:58:31.907Z,8.40
2023-02-12T02:01:00.627Z,8.40
2023-02-12T02:03:27.890Z,8.40
2023-02-12T02:05:57.192Z,8.40
2023-02-12T02:08:24.469Z,8.40
2023-02-12T02:10:51.972Z,8.40
2023-02-12T02:13:37.631Z,8.50
2023-02-12T02:16:09.649Z,8.40
2023-02-12T02:18:44.829Z,8.40
2023-02-12T02:21:34.071Z,8.40
2023-02-12T02:24:19.787Z,8.40
2023-02-12T02:26:49.751Z,8.40
2023-02-12T02:29:35.522Z,8.40
2023-02-12T02:32:06.186Z,8.40
2023-02-12T02:34:45.446Z,8.40
2023-02-12T02:37:12.260Z,8.40
2023-02-12T02:39:44.967Z,8.40
2023-02-12T02:42:17.537Z,8.40
2023-02-12T02:44:49.097Z,8.40
2023-02-12T02:47:17.571Z,8.40
2023-02-12T02:49:46.842Z,8.30
2023-02-12T02:52:20.271Z,8.30
2023-02-12T02:54:53.576Z,8.30
2023-02-12T02:57:52.857Z,8.30
2023-02-12T03:00:26.168Z,8.30
2023-02-12T03:02:56.644Z,8.30
2023-02-12T03:05:32.158Z,8.30
2023-02-12T03:08:14.945Z,8.30
2023-02-12T03:10:46.510Z,8.30
2023-02-12T03:13:16.338Z,8.30
2023-02-12T03:16:00.781Z,8.30
2023-02-12T03:18:41.436Z,8.30
2023-02-12T03:21:14.008Z,8.20
2023-02-12T03:23:44.227Z,8.20
2023-02-12T03:26:21.342Z,8.20
2023-02-12T03:28:48.279Z,8.20
2023-02-12T03:31:29.750Z,8.20
2023-02-12T03:34:08.131Z,8.20
2023-02-12T03:36:42.278Z,8.20
2023-02-12T03:39:25.534Z,8.20
2023-02-12T03:42:01.857Z,8.20
2023-02-12T03:44:37.938Z,8.20
2023-02-12T03:47:12.226Z,8.20
2023-02-12T03:49:43.179Z,8.20
2023-02-12T03:52:10.033Z,8.20
2023-02-12T03:54:37.374Z,8.20
2023-02-12T03:57:06.563Z,8.20
2023-02-12T03:59:35.388Z,8.20
2023-02-12T04:02:02.445Z,8.20
2023-02-12T04:04:30.035Z,8.20
2023-02-12T04:06:57.407Z,8.20
2023-02-12T04:09:25.573Z,8.20
2023-02-12T04:12:19.044Z,8.20
2023-02-12T04:15:02.084Z,8.20
2023-02-12T04:17:29.152Z,8.20
2023-02-12T04:20:04.359Z,8.20
2023-02-12T04:22:46.678Z,8.20
2023-02-12T04:25:13.522Z,8.20
2023-02-12T04:27:49.065Z,8.20
2023-02-12T04:30:26.012Z,8.20
2023-02-12T04:32:55.853Z,8.20
2023-02-12T04:35:34.981Z,8.10
2023-02-12T04:38:04.982Z,8.20
2023-02-12T04:40:32.121Z,8.10
2023-02-12T04:42:59.078Z,8.10
2023-02-12T04:45:30.450Z,8.10
2023-02-12T04:47:57.578Z,8.10
2023-02-12T04:50:24.524Z,8.10
2023-02-12T04:52:51.490Z,8.10
2023-02-12T04:55:18.713Z,8.10
2023-02-12T04:57:45.655Z,8.10
2023-02-12T05:00:13.792Z,8.10
2023-02-12T05:02:40.887Z,8.10
2023-02-12T05:05:08.071Z,8.10
2023-02-12T05:07:35.091Z,8.10
2023-02-12T05:10:02.061Z,8.10
2023-02-12T05:12:28.948Z,8.10
2023-02-12T05:14:55.903Z,8.00
2023-02-12T05:17:23.779Z,8.00
2023-02-12T05:19:50.927Z,8.00
2023-02-12T05:22:21.041Z,8.00
2023-02-12T05:24:48.046Z,8.10
2023-02-12T05:27:14.961Z,8.00
2023-02-12T05:29:41.894Z,8.10
2023-02-12T05:32:09.112Z,8.10
2023-02-12T05:34:36.888Z,8.10
2023-02-12T05:37:03.948Z,8.10
2023-02-12T05:39:30.978Z,8.10
2023-02-12T05:41:57.845Z,8.10
2023-02-12T05:44:24.704Z,8.10
2023-02-12T05:46:51.707Z,8.10
2023-02-12T05:49:18.576Z,8.10
2023-02-12T05:51:45.590Z,8.00
2023-02-12T05:54:12.536Z,8.00
2023-02-12T05:56:43.676Z,8.00
2023-02-12T05:59:16.062Z,7.90
2023-02-12T06:01:44.122Z,7.90
2023-02-12T06:04:13.908Z,7.90
2023-02-12T06:06:43.860Z,8.00
2023-02-12T06:09:11.855Z,8.00
2023-02-12T06:11:39.669Z,8.00
2023-02-12T06:14:07.959Z,8.00
2023-02-12T06:16:35.595Z,7.90
2023-02-12T06:19:04.403Z,7.90
2023-02-12T06:21:31.708Z,7.90
2023-02-12T06:23:58.645Z,7.90
2023-02-12T06:26:26.009Z,7.90
2023-02-12T06:28:53.134Z,7.90
2023-02-12T06:31:27.545Z,7.90
2023-02-12T06:33:55.525Z,7.90
2023-02-12T06:36:22.548Z,8.00
2023-02-12T06:38:49.608Z,8.00
2023-02-12T06:41:16.762Z,8.00
2023-02-12T06:43:43.833Z,7.90
2023-02-12T06:46:11.308Z,7.90
2023-02-12T06:48:38.262Z,7.90
2023-02-12T06:51:09.644Z,7.90
2023-02-12T06:53:36.682Z,7.90
2023-02-12T06:56:04.842Z,7.90
2023-02-12T06:58:32.050Z,7.90
2023-02-12T07:01:08.357Z,8.00
2023-02-12T07:03:35.338Z,8.00
2023-02-12T07:06:03.664Z,7.90
2023-02-12T07:08:30.532Z,8.00
2023-02-12T07:10:57.495Z,8.00
2023-02-12T07:13:24.422Z,8.00
2023-02-12T07:15:51.375Z,7.90
2023-02-12T07:18:20.969Z,8.00
2023-02-12T07:20:47.922Z,8.00
2023-02-12T07:23:15.073Z,7.90
2023-02-12T07:25:42.013Z,8.00
2023-02-12T07:28:09.013Z,8.00
2023-02-12T07:30:35.985Z,8.00
2023-02-12T07:33:03.221Z,8.00
2023-02-12T07:35:30.308Z,8.00
2023-02-12T07:37:57.322Z,8.00
2023-02-12T07:40:24.195Z,8.00
2023-02-12T07:42:55.928Z,8.00
2023-02-12T07:45:23.082Z,8.10
2023-02-12T07:47:50.256Z,8.10
2023-02-12T07:50:17.358Z,8.10
2023-02-12T07:52:44.556Z,8.10
2023-02-12T07:55:11.492Z,8.10
2023-02-12T07:57:38.397Z,8.10
2023-02-12T08:00:09.171Z,8.20
2023-02-12T08:02:36.457Z,8.20
2023-02-12T08:05:03.369Z,8.20
2023-02-12T08:07:33.346Z,8.20
2023-02-12T08:10:00.495Z,8.20
2023-02-12T08:12:27.540Z,8.20
2023-02-12T08:14:54.830Z,8.20
2023-02-12T08:17:21.686Z,8.20
2023-02-12T08:19:48.586Z,8.30
2023-02-12T08:22:15.544Z,8.30
2023-02-12T08:24:42.920Z,8.20
2023-02-12T08:27:09.865Z,8.30
2023-02-12T08:29:36.818Z,8.30
2023-02-12T08:32:04.331Z,8.30
2023-02-12T08:34:32.592Z,8.30
2023-02-12T08:37:00.316Z,8.30
2023-02-12T08:39:28.444Z,8.40
2023-02-12T08:41:56.114Z,8.40
2023-02-12T08:44:23.078Z,8.40
2023-02-12T08:46:51.027Z,8.40
2023-02-12T08:49:24.820Z,8.50
2023-02-12T08:51:52.842Z,8.50
2023-02-12T08:54:22.516Z,8.50
2023-02-12T08:56:49.894Z,8.50
2023-02-12T08:59:17.600Z,8.50
2023-02-12T09:01:44.794Z,8.60
2023-02-12T09:04:16.650Z,8.60
2023-02-12T09:06:46.951Z,8.60
2023-02-12T09:09:14.137Z,8.60
2023-02-12T09:11:41.176Z,8.70
2023-02-12T09:14:09.598Z,8.70
2023-02-12T09:16:37.162Z,8.70
2023-02-12T09:19:04.886Z,8.70
2023-02-12T09:21:32.020Z,8.80
2023-02-12T09:24:01.545Z,8.80
2023-02-12T09:26:28.889Z,8.90
2023-02-12T09:28:56.093Z,8.90
2023-02-12T09:31:26.835Z,8.90
2023-02-12T09:34:01.484Z,9.00
2023-02-12T09:36:28.611Z,9.00
2023-02-12T09:38:56.762Z,9.10
2023-02-12T09:41:32.827Z,9.10
2023-02-12T09:44:22.750Z,9.10
2023-02-12T09:47:10.176Z,9.10
2023-02-12T09:49:46.485Z,9.10
2023-02-12T09:52:15.546Z,9.20
2023-02-12T09:54:42.628Z,9.20
2023-02-12T09:57:20.067Z,9.20
2023-02-12T09:59:57.621Z,9.20
2023-02-12T10:02:24.718Z,9.20
2023-02-12T10:05:01.173Z,9.20
2023-02-12T10:07:47.572Z,9.20
2023-02-12T10:10:37.284Z,9.30
2023-02-12T10:13:16.489Z,9.30
2023-02-12T10:15:58.728Z,9.30
2023-02-12T10:18:31.987Z,9.30
2023-02-12T10:21:04.116Z,9.20
2023-02-12T10:23:37.341Z,9.30
2023-02-12T10:26:12.328Z,9.30
2023-02-12T10:28:40.762Z,9.40
2023-02-12T10:31:12.161Z,9.40
2023-02-12T10:33:49.160Z,9.40
2023-02-12T10:36:26.313Z,9.40
2023-02-12T10:38:57.606Z,9.40
2023-02-12T10:41:27.622Z,9.40
2023-02-12T10:43:54.536Z,9.50
2023-02-12T10:46:21.653Z,9.50
2023-02-12T10:48:53.045Z,9.50
2023-02-12T10:51:20.019Z,9.60
2023-02-12T10:53:47.019Z,9.60
2023-02-12T10:56:14.063Z,9.70
2023-02-12T10:58:42.547Z,9.70
2023-02-12T11:01:28.432Z,9.70
2023-02-12T11:03:56.285Z,9.70
2023-02-12T11:06:28.106Z,9.80
2023-02-12T11:08:55.463Z,9.70
2023-02-12T11:11:32.945Z,9.80
2023-02-12T11:14:04.075Z,9.80
2023-02-12T11:16:36.327Z,9.80
2023-02-12T11:19:05.303Z,9.80
2023-02-12T11:21:32.993Z,9.80
2023-02-12T11:24:19.773Z,9.70
2023-02-12T11:26:47.275Z,9.70
2023-02-12T11:29:26.739Z,9.80
2023-02-12T11:32:01.647Z,9.80
2023-02-12T11:34:30.003Z,9.90
2023-02-12T11:36:57.426Z,9.80
2023-02-12T11:39:46.562Z,9.80
2023-02-12T11:42:17.951Z,9.80
2023-02-12T11:44:49.013Z,9.80
2023-02-12T11:47:22.229Z,9.80
2023-02-12T11:49:49.329Z,9.80
2023-02-12T11:52:24.282Z,9.80
2023-02-12T11:54:52.412Z,9.90
2023-02-12T11:57:39.349Z,9.90
2023-02-12T12:00:12.710Z,10.00
2023-02-12T12:02:42.896Z,10.00
2023-02-12T12:05:13.217Z,10.10
2023-02-12T12:07:42.942Z,10.10
2023-02-12T12:10:15.831Z,10.00
2023-02-12T12:12:48.377Z,10.00
2023-02-12T12:15:36.950Z,10.00
2023-02-12T12:18:34.902Z,10.00
2023-02-12T12:21:05.246Z,10.10
2023-02-12T12:23:34.995Z,10.20
2023-02-12T12:26:04.956Z,10.10
2023-02-12T12:28:34.910Z,10.10
2023-02-12T12:31:08.911Z,10.10
2023-02-12T12:33:44.779Z,10.10
2023-02-12T12:36:14.811Z,10.20
2023-02-12T12:38:44.882Z,10.20
2023-02-12T12:41:18.698Z,10.30
2023-02-12T12:43:57.853Z,10.30
2023-02-12T12:46:43.686Z,10.30
2023-02-12T12:49:22.761Z,10.30
2023-02-12T12:52:08.192Z,10.30
2023-02-12T12:54:43.070Z,10.30
2023-02-12T12:57:18.015Z,10.30
2023-02-12T12:59:48.001Z,10.30
2023-02-12T13:02:34.162Z,10.30
2023-02-12T13:05:19.931Z,10.30
2023-02-12T13:07:55.056Z,10.30
2023-02-12T13:10:33.040Z,10.30
2023-02-12T13:13:12.104Z,10.30
2023-02-12T13:15:45.190Z,10.30
2023-02-12T13:18:12.198Z,10.30
2023-02-12T13:20:51.374Z,10.30
2023-02-12T13:23:32.983Z,10.30
2023-02-12T13:26:18.742Z,10.30
2023-02-12T13:28:54.199Z,10.20
2023-02-12T13:31:32.919Z,10.30
2023-02-12T13:34:02.508Z,10.30
2023-02-12T13:36:29.519Z,10.30
2023-02-12T13:39:11.365Z,10.30
2023-02-12T13:41:39.433Z,10.30
2023-02-12T13:44:31.874Z,10.30
2023-02-12T13:47:12.827Z,10.40
2023-02-12T13:49:53.020Z,10.30
2023-02-12T13:52:25.473Z,10.30
2023-02-12T13:55:00.618Z,10.30
2023-02-12T13:57:27.578Z,10.20
2023-02-12T13:59:55.411Z,10.20
2023-02-12T14:02:27.377Z,10.20
2023-02-12T14:04:54.305Z,10.20
2023-02-12T14:07:21.961Z,10.30
2023-02-12T14:09:52.043Z,10.30
2023-02-12T14:12:27.421Z,10.30
2023-02-12T14:14:59.391Z,10.40
2023-02-12T14:17:29.373Z,10.40
2023-02-12T14:19:59.386Z,10.40
2023-02-12T14:22:26.428Z,10.40
2023-02-12T14:24:54.508Z,10.40
2023-02-12T14:27:30.532Z,10.30
2023-02-12T14:30:20.884Z,10.30
2023-02-12T14:32:50.967Z,10.30
2023-02-12T14:35:27.409Z,10.30
2023-02-12T14:37:55.260Z,10.30
2023-02-12T14:40:31.048Z,10.30
2023-02-12T14:42:58.208Z,10.30
2023-02-12T14:45:42.964Z,10.30
2023-02-12T14:48:30.018Z,10.30
2023-02-12T14:50:57.412Z,10.20
2023-02-12T14:53:28.052Z,10.20
2023-02-12T14:55:56.726Z,10.20
2023-02-12T14:58:24.798Z,10.30
2023-02-12T15:00:56.070Z,10.30
2023-02-12T15:03:29.364Z,10.30
2023-02-12T15:05:59.772Z,10.20
2023-02-12T15:08:37.470Z,10.10
2023-02-12T15:11:09.708Z,10.10
2023-02-12T15:13:47.252Z,10.20
2023-02-12T15:16:22.447Z,10.20
2023-02-12T15:19:09.996Z,10.20
2023-02-12T15:21:37.737Z,10.10
2023-02-12T15:24:09.126Z,10.20
2023-02-12T15:26:48.435Z,10.10
2023-02-12T15:29:21.117Z,10.10
2023-02-12T15:31:58.741Z,10.10
2023-02-12T15:34:28.199Z,10.20
2023-02-12T15:36:58.333Z,10.20
2023-02-12T15:39:25.756Z,10.10
2023-02-12T15:41:52.810Z,10.10
2023-02-12T15:44:19.641Z,10.10
2023-02-12T15:46:56.884Z,10.00
2023-02-12T15:49:27.850Z,10.00
2023-02-12T15:51:55.423Z,10.00
2023-02-12T15:54:22.528Z,10.00
2023-02-12T15:56:49.574Z,10.00
2023-02-12T15:59:23.863Z,10.00
2023-02-12T16:01:55.600Z,10.00
2023-02-12T16:04:22.634Z,9.90
2023-02-12T16:06:51.093Z,9.90
2023-02-12T16:09:20.065Z,9.90
2023-02-12T16:11:47.570Z,9.90
2023-02-12T16:14:25.781Z,9.90
2023-02-12T16:16:55.340Z,9.90
2023-02-12T16:19:24.207Z,9.90
2023-02-12T16:22:04.957Z,9.90
2023-02-12T16:24:34.086Z,9.80
2023-02-12T16:27:31.187Z,9.80
2023-02-12T16:29:59.924Z,9.80
2023-02-12T16:32:30.346Z,9.80
2023-02-12T16:35:01.962Z,9.70
2023-02-12T16:37:52.861Z,9.70
2023-02-12T16:40:27.183Z,9.70
2023-02-12T16:42:55.049Z,9.70
2023-02-12T16:45:25.399Z,9.70
2023-02-12T16:54:05.682Z,9.70
2023-02-12T16:56:34.552Z,9.70
2023-02-12T17:02:06.341Z,9.70
2023-02-12T17:19:39.453Z,9.50
2023-02-12T17:22:09.076Z,9.50
2023-02-12T17:24:36.037Z,9.50
2023-02-12T17:27:03.213Z,9.50
2023-02-12T17:29:31.024Z,9.50
2023-02-12T17:31:58.513Z,9.50
2023-02-12T17:34:26.625Z,9.50
2023-02-12T17:36:53.910Z,9.50
2023-02-12T17:39:21.344Z,9.50
2023-02-12T17:41:48.888Z,9.50
2023-02-12T17:44:16.679Z,9.50
2023-02-12T17:46:43.817Z,9.50
2023-02-12T17:49:11.426Z,9.50
2023-02-12T17:51:38.522Z,9.50
2023-02-12T17:54:05.586Z,9.50
2023-02-12T17:56:32.690Z,9.50
2023-02-12T17:59:00.107Z,9.50
2023-02-12T18:01:27.547Z,9.40
2023-02-12T18:03:57.115Z,9.40
2023-02-12T18:06:31.203Z,9.40
2023-02-12T18:08:58.647Z,9.40
2023-02-12T18:11:25.654Z,9.40
2023-02-12T18:13:53.740Z,9.40
2023-02-12T18:16:21.411Z,9.40
2023-02-12T18:18:48.675Z,9.40
2023-02-12T18:21:16.217Z,9.40
2023-02-12T18:23:46.454Z,9.40
2023-02-12T18:26:17.556Z,9.30
2023-02-12T18:28:44.845Z,9.30
2023-02-12T18:31:12.332Z,9.30
2023-02-12T18:33:39.741Z,9.30
2023-02-12T18:36:09.159Z,9.30
2023-02-12T18:38:37.496Z,9.30
2023-02-12T18:41:08.230Z,9.30
2023-02-12T18:43:36.350Z,9.30
2023-02-12T18:46:11.168Z,9.30
2023-02-12T18:48:38.092Z,9.30
2023-02-12T18:51:05.990Z,9.30
2023-02-12T18:53:33.007Z,9.30
2023-02-12T18:56:03.499Z,9.30
2023-02-12T18:58:30.485Z,9.30
2023-02-12T19:00:57.745Z,9.20
2023-02-12T19:03:25.452Z,9.20
2023-02-12T19:05:53.012Z,9.30
2023-02-12T19:08:19.964Z,9.20
2023-02-12T19:10:49.713Z,9.20
2023-02-12T19:13:16.637Z,9.30
2023-02-12T19:15:43.689Z,9.20
2023-02-12T19:18:10.605Z,9.20
2023-02-12T19:20:40.006Z,9.20
2023-02-12T19:23:07.220Z,9.20
2023-02-12T19:25:42.894Z,9.30
2023-02-12T19:28:10.541Z,9.30
2023-02-12T19:30:38.359Z,9.30
2023-02-12T19:33:05.416Z,9.30
2023-02-12T19:35:32.417Z,9.30
2023-02-12T19:37:59.401Z,9.30
2023-02-12T19:40:26.338Z,9.30
2023-02-12T19:42:53.296Z,9.20
2023-02-12T19:45:20.298Z,9.20
2023-02-12T19:47:48.008Z,9.20
2023-02-12T19:50:16.867Z,9.20
2023-02-12T19:52:44.106Z,9.20
2023-02-12T19:55:11.076Z,9.50
2023-02-12T19:57:38.756Z,9.70
2023-02-12T20:00:06.076Z,9.80
2023-02-12T20:02:33.161Z,9.90
2023-02-12T20:05:03.490Z,10.00
2023-02-12T20:07:30.907Z,10.10
2023-02-12T20:09:58.046Z,10.20
2023-02-12T20:12:25.091Z,10.30
2023-02-12T20:14:54.031Z,10.40
2023-02-12T20:17:21.058Z,10.40
2023-02-12T20:19:48.172Z,10.40
2023-02-12T20:22:15.121Z,10.40
2023-02-12T20:24:44.665Z,10.40
2023-02-12T20:27:14.152Z,10.50
2023-02-12T20:29:41.180Z,10.60
2023-02-12T20:32:08.276Z,10.60
2023-02-12T20:34:49.969Z,10.60
2023-02-12T20:37:19.004Z,10.60
2023-02-12T20:39:46.051Z,10.60
2023-02-12T20:42:13.039Z,10.50
2023-02-12T20:44:40.044Z,10.50
2023-02-12T20:47:10.170Z,10.50
2023-02-12T20:49:37.447Z,10.60
2023-02-12T20:52:04.571Z,10.60
2023-02-12T20:54:31.516Z,10.60
2023-02-12T20:56:58.474Z,10.50
2023-02-12T20:59:25.607Z,10.40
2023-02-12T21:01:55.440Z,10.40
2023-02-12T21:04:22.449Z,10.40
2023-02-12T21:06:49.844Z,10.40
2023-02-12T21:09:17.321Z,10.50
2023-02-12T21:11:45.975Z,10.40
2023-02-12T21:14:23.443Z,10.40
2023-02-12T21:16:51.857Z,10.40
2023-02-12T21:19:19.109Z,10.30
2023-02-12T21:21:46.332Z,10.30
2023-02-12T21:24:15.614Z,10.20
2023-02-12T21:26:42.700Z,10.30
2023-02-12T21:29:09.933Z,10.30
2023-02-12T21:31:38.098Z,10.30
2023-02-12T21:34:06.607Z,10.20
2023-02-12T21:36:35.984Z,10.10
2023-02-12T21:39:04.186Z,10.10
2023-02-12T21:41:33.657Z,10.00
2023-02-12T21:44:03.678Z,10.00
2023-02-12T21:46:30.864Z,10.00
2023-02-12T21:49:01.185Z,10.00
2023-02-12T21:51:29.465Z,9.90
2023-02-12T21:53:57.798Z,9.90
2023-02-12T21:56:25.032Z,9.80
2023-02-12T21:58:52.393Z,9.70
2023-02-12T22:01:21.092Z,9.60
2023-02-12T22:07:21.152Z,9.50
2023-02-12T22:09:48.264Z,9.40
2023-02-12T22:12:15.228Z,9.40
2023-02-12T22:14:42.145Z,9.40
2023-02-12T22:17:09.294Z,9.40
2023-02-12T22:19:36.277Z,9.40
2023-02-12T22:22:03.294Z,9.40
2023-02-12T22:24:30.255Z,9.40
2023-02-12T22:26:57.134Z,9.40
2023-02-12T22:29:24.075Z,9.40
2023-02-12T22:31:51.257Z,9.40
2023-02-12T22:34:21.339Z,9.30
2023-02-12T22:36:48.576Z,9.30
2023-02-12T22:39:17.712Z,9.30
2023-02-12T22:41:44.818Z,9.20
2023-02-12T22:44:12.686Z,9.10
2023-02-12T22:46:39.905Z,9.00
2023-02-12T22:49:06.971Z,8.90
2023-02-12T22:51:35.541Z,8.80
2023-02-12T22:54:02.571Z,8.80
2023-02-12T22:56:29.493Z,8.70
2023-02-12T22:58:57.321Z,8.70
2023-02-12T23:01:24.835Z,8.70
2023-02-12T23:03:52.230Z,8.80
2023-02-12T23:06:21.016Z,8.80
2023-02-12T23:08:52.434Z,8.70
2023-02-12T23:11:20.012Z,8.70
2023-02-12T23:13:47.050Z,8.70
2023-02-12T23:16:14.224Z,8.70
2023-02-12T23:18:41.360Z,8.70
2023-02-12T23:21:08.385Z,8.70
2023-02-12T23:23:35.474Z,8.60
2023-02-12T23:26:02.585Z,8.60
2023-02-12T23:28:30.033Z,8.60
2023-02-12T23:30:57.679Z,8.50
2023-02-12T23:33:25.080Z,8.50
2023-02-12T23:35:52.047Z,8.40
2023-02-12T23:38:18.998Z,8.40
2023-02-12T23:40:47.092Z,8.30
2023-02-12T23:43:14.183Z,8.30
2023-02-12T23:45:42.625Z,8.20
2023-02-12T23:48:09.583Z,8.20
2023-02-12T23:50:39.347Z,8.10
2023-02-12T23:53:06.400Z,8.10
2023-02-12T23:55:36.394Z,8.10
2023-02-12T23:58:04.467Z,8.00
